Für Piloten

Informationen für Piloten zum Flugplatz Borken-Hoxfeld
Hier findest Du alle relevanten Informationen, die Du als Pilot benötigst, um Borken-Hoxfeld anzufliegen.

Flugplatz: Borken-Hoxfeld ICAO-Code: EDLY
Borken-Hoxfeld Info: 122,930 Mhz
GAFOR Gebiet: 32
Platzrunde: Motorflug; -> Südplatzrunde; Segelflug; -> Nordplatzrunde;
Landegebühr: z.Zt. 5,00 Euro
Platzhöhe: 48m üMSL
Pisten: 12/30 – 740 m x 30 m, GRAS
Betriebszeiten: PPR (in den Sommermonaten Mittagspause beachten)

 

Wetterforecast:

Available data for EDDL from the past 2 hours
DUESSELDORF
Metar
EDDL 261550Z 25012KT 9999 -SHGSRA FEW013 SCT017CB 05/02 Q1002 TEMPO 4500 SHGS

15:50 UTC

Wind: 250° 12kt

Visibility: 9999 m

Sky: FEW 1300 ft

Temp: 5 deg C / 41 deg F

Dewpoint: 2 deg C / 35.6 deg F

Pressure: 1002 hPa

TAF
TAF EDDL 261100Z 2612/2718 27013KT 9999 BKN012 BECMG 2612/2614 BKN020 TEMPO 2612/2619 28015G25KT 4000 SHRA BKN015CB PROB30 TEMPO 2612/2617 29020G30KT 2500 TSRAGS BKN012CB BECMG 2620/2623 23008KT PROB40 TEMPO 2623/2702 3000 -SHSNRA BKN010CB BECMG 2706/2709 15010KT TEMPO 2712/2718 RA BKN010 PROB30 TEMPO 2715/2718 35008KT 3000 -SNRA BKN005

Alle obigen Informationen ersetzen nicht die vorgeschriebene, persönliche Flugvorbereitung.